COOK1: Arkansas River Nr Coolidge, KS

                                SHEF ID:       COOK1     ARKANSAS R NR COOLIDGE, KS
STATION TYPE:
Regulating: Stage = 8.00, Flow = 2041

PRECIP STAGE STAGE(2) RIV-FLOW WTR-TEMP CONDUCT BAT-LOAD
in ft ft cfs F umho/cm volt
Ccp-Rev Ccp-Rev Ccp-Rev Ccp-Rev Ccp-Rev Ccp-Rev Ccp-Rev
(America/Chicago)
08/19 00:00 0.00 2.75 2.78 72 77.31 6053 12.95
08/19 01:00 0.00 2.75 2.78 72 76.46 5996 12.95
08/19 02:00 0.00 2.75 2.79 72 75.74 5978 12.89
08/19 03:00 0.00 2.76 2.82 73 74.97 5989 12.89
08/19 04:00 0.00 2.76 2.80 73 74.34 6005 12.89
08/19 05:00 0.00 2.75 2.79 72 73.76 6050 12.89
08/19 06:00 0.00 2.74 2.62 71 73.11 6070 12.89
08/19 07:00 0.00 2.74 2.62 71 72.55 6066 12.83
08/19 08:00 0.00 2.72 2.61 69 71.92 6061 12.83
08/19 09:00 0.00 2.73 2.60 70 71.55 6052 12.83
08/19 10:00 0.00 2.74 2.62 71 71.46 6041 12.95
08/19 11:00 0.00 2.73 2.64 70 71.62 6028 13.07
08/19 12:00 0.00 2.73 2.64 70 72.16 6025 13.48
08/19 13:00 0.00 2.75 2.63 72 73.33 6044 13.59
08/19 14:00 0.00 2.72 2.63 69 75.63 6061 13.71
08/19 15:00 0.00 2.71 2.60 68 78.76 6082 13.83
08/19 16:00 0.00 2.70 2.58 67 80.51 6088 13.83
08/19 17:00 0.00 2.67 2.56 64 81.72 6093 13.59
08/19 18:00 0.00 2.67 2.56 64 81.72 6154 13.36
08/19 19:00 0.00 2.67 2.56 64 80.64 6210 13.24
08/19 20:00 0.00 2.69 2.58 66 79.16 6169 13.18
08/19 21:00 0.00 2.68 2.57 65 77.86 6073 13.07
08/19 22:00 0.00 2.67 2.56 64 76.89 6050 13.00
08/19 23:00 ---- ---- ---- ---- ---- ---- ----
Data processed at Tue 20Aug2024 04:30 GMT

Parsing this webpage?

Checkout our new Data API! CWMSDataAPI (CDA)

Timeseries IDs (TSIDs)

TSIDs used from left to right in the data table
COOL.Precip-Inc.Total.1Hour.1Hour.Ccp-Rev
COOL.Stage.Inst.1Hour.0.Ccp-Rev
COOL.Stage-Alt.Inst.1Hour.0.Ccp-Rev
COOL.Flow.Inst.1Hour.0.Ccp-Rev
COOL.Temp-Water.Inst.1Hour.0.Ccp-Rev
COOL.Cond.Inst.1Hour.0.Ccp-Rev
COOL.Volt-Battery Load.Inst.1Hour.0.Ccp-Rev

                            

All information presented herein is the property of the government of the United States of America and may be revised or deleted at any time without prior notice. Dissemination of this information without the expressed written consent of the Public Affairs Office, Tulsa District U.S. Army Corps of Engineers is strictly prohibited. These data are gathered electronically and, as presented, have NOT undergone any form of quality control. These data are NOT guaranteed to be valid or correct.